sensor_id;sensor_type;location;lat;lon;timestamp;P1;durP1;ratioP1;P2;durP2;ratioP2
13309;SDS011;6723;48.256;16.402;2022-10-30T00:00:48;23.33;;;16.07;;
13309;SDS011;6723;48.256;16.402;2022-10-30T00:03:15;21.80;;;15.87;;
13309;SDS011;6723;48.256;16.402;2022-10-30T00:05:42;25.33;;;15.40;;
13309;SDS011;6723;48.256;16.402;2022-10-30T00:08:10;23.33;;;15.67;;
13309;SDS011;6723;48.256;16.402;2022-10-30T00:10:37;21.70;;;15.47;;
13309;SDS011;6723;48.256;16.402;2022-10-30T00:13:04;21.20;;;14.63;;
13309;SDS011;6723;48.256;16.402;2022-10-30T00:15:31;20.87;;;14.53;;
13309;SDS011;6723;48.256;16.402;2022-10-30T00:17:57;24.63;;;18.40;;
13309;SDS011;6723;48.256;16.402;2022-10-30T00:20:23;23.77;;;16.63;;
13309;SDS011;6723;48.256;16.402;2022-10-30T00:22:49;23.83;;;17.23;;
13309;SDS011;6723;48.256;16.402;2022-10-30T00:25:14;24.33;;;18.63;;
13309;SDS011;6723;48.256;16.402;2022-10-30T00:27:40;24.53;;;17.73;;
13309;SDS011;6723;48.256;16.402;2022-10-30T00:30:06;23.47;;;16.03;;
13309;SDS011;6723;48.256;16.402;2022-10-30T00:32:33;24.10;;;16.37;;
13309;SDS011;6723;48.256;16.402;2022-10-30T00:34:59;25.83;;;16.53;;
13309;SDS011;6723;48.256;16.402;2022-10-30T00:37:25;23.23;;;15.77;;
13309;SDS011;6723;48.256;16.402;2022-10-30T00:39:50;23.43;;;16.03;;
13309;SDS011;6723;48.256;16.402;2022-10-30T00:42:16;22.63;;;16.17;;
13309;SDS011;6723;48.256;16.402;2022-10-30T00:44:48;27.47;;;16.60;;
13309;SDS011;6723;48.256;16.402;2022-10-30T00:47:30;26.50;;;15.83;;
13309;SDS011;6723;48.256;16.402;2022-10-30T00:50:02;23.17;;;15.43;;
13309;SDS011;6723;48.256;16.402;2022-10-30T00:52:33;47.17;;;16.17;;
13309;SDS011;6723;48.256;16.402;2022-10-30T00:55:08;21.70;;;15.77;;
13309;SDS011;6723;48.256;16.402;2022-10-30T00:57:37;23.63;;;16.50;;
13309;SDS011;6723;48.256;16.402;2022-10-30T01:00:05;22.67;;;15.47;;
13309;SDS011;6723;48.256;16.402;2022-10-30T01:02:33;21.63;;;16.30;;
13309;SDS011;6723;48.256;16.402;2022-10-30T01:04:59;26.07;;;16.47;;
13309;SDS011;6723;48.256;16.402;2022-10-30T01:07:27;51.10;;;16.97;;
13309;SDS011;6723;48.256;16.402;2022-10-30T01:09:52;40.00;;;16.53;;
13309;SDS011;6723;48.256;16.402;2022-10-30T01:12:19;25.67;;;16.10;;
13309;SDS011;6723;48.256;16.402;2022-10-30T01:14:47;31.03;;;17.23;;
13309;SDS011;6723;48.256;16.402;2022-10-30T01:23:08;64.33;;;17.57;;
13309;SDS011;6723;48.256;16.402;2022-10-30T01:28:55;24.93;;;16.77;;
13309;SDS011;6723;48.256;16.402;2022-10-30T01:34:24;30.53;;;17.57;;
13309;SDS011;6723;48.256;16.402;2022-10-30T01:37:13;26.03;;;16.47;;
13309;SDS011;6723;48.256;16.402;2022-10-30T01:39:46;34.73;;;17.33;;
13309;SDS011;6723;48.256;16.402;2022-10-30T01:45:13;22.53;;;15.27;;
13309;SDS011;6723;48.256;16.402;2022-10-30T02:01:19;25.83;;;15.83;;
13309;SDS011;6723;48.256;16.402;2022-10-30T02:03:46;47.03;;;15.57;;
13309;SDS011;6723;48.256;16.402;2022-10-30T02:06:13;26.37;;;15.63;;
13309;SDS011;6723;48.256;16.402;2022-10-30T02:08:38;22.90;;;15.47;;
13309;SDS011;6723;48.256;16.402;2022-10-30T02:11:04;22.03;;;15.47;;
13309;SDS011;6723;48.256;16.402;2022-10-30T02:13:30;28.80;;;15.57;;
13309;SDS011;6723;48.256;16.402;2022-10-30T02:15:56;20.73;;;15.00;;
13309;SDS011;6723;48.256;16.402;2022-10-30T02:18:23;21.37;;;14.40;;
13309;SDS011;6723;48.256;16.402;2022-10-30T02:20:49;20.07;;;14.07;;
13309;SDS011;6723;48.256;16.402;2022-10-30T02:23:15;19.90;;;14.53;;
13309;SDS011;6723;48.256;16.402;2022-10-30T02:25:43;19.63;;;14.47;;
13309;SDS011;6723;48.256;16.402;2022-10-30T02:28:10;19.17;;;14.40;;
13309;SDS011;6723;48.256;16.402;2022-10-30T02:30:36;25.13;;;15.77;;
13309;SDS011;6723;48.256;16.402;2022-10-30T02:33:03;29.07;;;16.27;;
13309;SDS011;6723;48.256;16.402;2022-10-30T02:35:29;26.07;;;15.73;;
13309;SDS011;6723;48.256;16.402;2022-10-30T02:37:55;25.77;;;16.77;;
13309;SDS011;6723;48.256;16.402;2022-10-30T02:40:21;27.50;;;16.53;;
13309;SDS011;6723;48.256;16.402;2022-10-30T02:42:50;23.73;;;16.10;;
13309;SDS011;6723;48.256;16.402;2022-10-30T02:45:17;23.47;;;15.17;;
13309;SDS011;6723;48.256;16.402;2022-10-30T02:47:44;24.87;;;17.10;;
13309;SDS011;6723;48.256;16.402;2022-10-30T02:50:10;28.53;;;16.73;;
13309;SDS011;6723;48.256;16.402;2022-10-30T02:52:36;23.23;;;15.50;;
13309;SDS011;6723;48.256;16.402;2022-10-30T02:55:02;29.53;;;16.50;;
13309;SDS011;6723;48.256;16.402;2022-10-30T02:57:28;23.53;;;15.77;;
13309;SDS011;6723;48.256;16.402;2022-10-30T02:59:54;23.20;;;15.67;;
13309;SDS011;6723;48.256;16.402;2022-10-30T03:02:19;24.63;;;15.50;;
13309;SDS011;6723;48.256;16.402;2022-10-30T03:04:45;27.57;;;16.53;;
13309;SDS011;6723;48.256;16.402;2022-10-30T03:07:11;26.27;;;16.67;;
13309;SDS011;6723;48.256;16.402;2022-10-30T03:09:37;30.67;;;16.33;;
13309;SDS011;6723;48.256;16.402;2022-10-30T03:12:03;26.10;;;16.67;;
13309;SDS011;6723;48.256;16.402;2022-10-30T03:14:29;25.60;;;16.73;;
13309;SDS011;6723;48.256;16.402;2022-10-30T03:16:55;31.70;;;16.63;;
13309;SDS011;6723;48.256;16.402;2022-10-30T03:19:21;26.80;;;15.87;;
13309;SDS011;6723;48.256;16.402;2022-10-30T03:21:46;24.70;;;16.27;;
13309;SDS011;6723;48.256;16.402;2022-10-30T03:24:13;27.43;;;17.10;;
13309;SDS011;6723;48.256;16.402;2022-10-30T03:26:39;27.37;;;16.00;;
13309;SDS011;6723;48.256;16.402;2022-10-30T03:29:05;25.47;;;16.83;;
13309;SDS011;6723;48.256;16.402;2022-10-30T03:31:31;34.23;;;15.90;;
13309;SDS011;6723;48.256;16.402;2022-10-30T03:33:57;75.93;;;18.83;;
13309;SDS011;6723;48.256;16.402;2022-10-30T03:36:23;47.83;;;17.50;;
13309;SDS011;6723;48.256;16.402;2022-10-30T03:38:50;55.80;;;17.67;;
13309;SDS011;6723;48.256;16.402;2022-10-30T03:41:16;54.97;;;16.43;;
13309;SDS011;6723;48.256;16.402;2022-10-30T03:43:41;76.67;;;16.33;;
13309;SDS011;6723;48.256;16.402;2022-10-30T03:46:07;73.57;;;16.10;;
13309;SDS011;6723;48.256;16.402;2022-10-30T03:48:35;122.10;;;19.37;;
13309;SDS011;6723;48.256;16.402;2022-10-30T03:51:01;28.43;;;16.67;;
13309;SDS011;6723;48.256;16.402;2022-10-30T03:53:27;57.27;;;17.60;;
13309;SDS011;6723;48.256;16.402;2022-10-30T03:55:57;29.27;;;15.70;;
13309;SDS011;6723;48.256;16.402;2022-10-30T03:58:25;26.20;;;16.20;;
13309;SDS011;6723;48.256;16.402;2022-10-30T04:00:51;24.23;;;16.23;;
13309;SDS011;6723;48.256;16.402;2022-10-30T04:03:17;26.17;;;16.20;;
13309;SDS011;6723;48.256;16.402;2022-10-30T04:05:43;25.27;;;15.73;;
13309;SDS011;6723;48.256;16.402;2022-10-30T04:08:12;28.33;;;16.47;;
13309;SDS011;6723;48.256;16.402;2022-10-30T04:10:42;25.93;;;15.97;;
13309;SDS011;6723;48.256;16.402;2022-10-30T04:13:09;26.27;;;16.27;;
13309;SDS011;6723;48.256;16.402;2022-10-30T04:15:36;27.97;;;16.27;;
13309;SDS011;6723;48.256;16.402;2022-10-30T04:18:02;28.63;;;16.10;;
13309;SDS011;6723;48.256;16.402;2022-10-30T04:20:28;27.27;;;16.90;;
13309;SDS011;6723;48.256;16.402;2022-10-30T04:22:55;26.27;;;15.37;;
13309;SDS011;6723;48.256;16.402;2022-10-30T04:25:25;34.37;;;15.30;;
13309;SDS011;6723;48.256;16.402;2022-10-30T04:27:53;25.00;;;15.37;;
13309;SDS011;6723;48.256;16.402;2022-10-30T04:30:19;24.30;;;15.47;;
13309;SDS011;6723;48.256;16.402;2022-10-30T04:32:50;25.97;;;16.07;;
13309;SDS011;6723;48.256;16.402;2022-10-30T04:35:18;27.43;;;16.37;;
13309;SDS011;6723;48.256;16.402;2022-10-30T04:37:51;29.00;;;16.13;;
13309;SDS011;6723;48.256;16.402;2022-10-30T04:40:18;26.17;;;15.30;;
13309;SDS011;6723;48.256;16.402;2022-10-30T04:42:45;25.17;;;14.83;;
13309;SDS011;6723;48.256;16.402;2022-10-30T04:45:12;26.33;;;15.47;;
13309;SDS011;6723;48.256;16.402;2022-10-30T04:47:39;25.13;;;14.40;;
13309;SDS011;6723;48.256;16.402;2022-10-30T04:50:05;26.60;;;15.03;;
13309;SDS011;6723;48.256;16.402;2022-10-30T04:52:31;23.40;;;15.10;;
13309;SDS011;6723;48.256;16.402;2022-10-30T04:54:56;24.17;;;15.03;;
13309;SDS011;6723;48.256;16.402;2022-10-30T04:57:22;31.27;;;14.33;;
13309;SDS011;6723;48.256;16.402;2022-10-30T04:59:48;22.67;;;14.67;;
13309;SDS011;6723;48.256;16.402;2022-10-30T05:02:14;23.60;;;14.27;;
13309;SDS011;6723;48.256;16.402;2022-10-30T05:04:40;24.67;;;13.73;;
13309;SDS011;6723;48.256;16.402;2022-10-30T05:07:05;25.73;;;14.37;;
13309;SDS011;6723;48.256;16.402;2022-10-30T05:09:32;22.77;;;14.37;;
13309;SDS011;6723;48.256;16.402;2022-10-30T05:11:58;20.93;;;14.03;;
13309;SDS011;6723;48.256;16.402;2022-10-30T05:14:27;53.77;;;14.50;;
13309;SDS011;6723;48.256;16.402;2022-10-30T05:16:56;26.43;;;14.73;;
13309;SDS011;6723;48.256;16.402;2022-10-30T05:19:22;24.47;;;15.63;;
13309;SDS011;6723;48.256;16.402;2022-10-30T05:21:48;25.13;;;16.23;;
13309;SDS011;6723;48.256;16.402;2022-10-30T05:24:14;23.33;;;15.73;;
13309;SDS011;6723;48.256;16.402;2022-10-30T05:26:40;28.13;;;15.33;;
13309;SDS011;6723;48.256;16.402;2022-10-30T05:29:06;23.97;;;14.20;;
13309;SDS011;6723;48.256;16.402;2022-10-30T05:31:32;23.60;;;14.87;;
13309;SDS011;6723;48.256;16.402;2022-10-30T05:33:57;29.27;;;15.23;;
13309;SDS011;6723;48.256;16.402;2022-10-30T05:36:23;24.47;;;15.27;;
13309;SDS011;6723;48.256;16.402;2022-10-30T05:38:49;34.83;;;14.63;;
13309;SDS011;6723;48.256;16.402;2022-10-30T05:41:15;29.60;;;15.13;;
13309;SDS011;6723;48.256;16.402;2022-10-30T05:43:41;23.67;;;14.67;;
13309;SDS011;6723;48.256;16.402;2022-10-30T05:46:07;25.43;;;15.77;;
13309;SDS011;6723;48.256;16.402;2022-10-30T05:48:33;22.37;;;14.97;;
13309;SDS011;6723;48.256;16.402;2022-10-30T05:50:59;32.00;;;15.67;;
13309;SDS011;6723;48.256;16.402;2022-10-30T05:53:24;22.10;;;14.93;;
13309;SDS011;6723;48.256;16.402;2022-10-30T05:55:50;21.03;;;14.23;;
13309;SDS011;6723;48.256;16.402;2022-10-30T05:58:20;28.53;;;16.13;;
13309;SDS011;6723;48.256;16.402;2022-10-30T06:00:45;24.17;;;14.33;;
13309;SDS011;6723;48.256;16.402;2022-10-30T06:03:12;28.13;;;14.40;;
13309;SDS011;6723;48.256;16.402;2022-10-30T06:05:38;21.27;;;13.50;;
13309;SDS011;6723;48.256;16.402;2022-10-30T06:08:06;25.43;;;14.97;;
13309;SDS011;6723;48.256;16.402;2022-10-30T06:10:32;24.60;;;14.17;;
13309;SDS011;6723;48.256;16.402;2022-10-30T06:13:00;21.37;;;13.80;;
13309;SDS011;6723;48.256;16.402;2022-10-30T06:15:27;20.13;;;13.50;;
13309;SDS011;6723;48.256;16.402;2022-10-30T06:17:54;21.87;;;14.30;;
13309;SDS011;6723;48.256;16.402;2022-10-30T06:20:21;24.17;;;15.00;;
13309;SDS011;6723;48.256;16.402;2022-10-30T06:22:53;22.10;;;14.03;;
13309;SDS011;6723;48.256;16.402;2022-10-30T06:25:20;30.13;;;17.97;;
13309;SDS011;6723;48.256;16.402;2022-10-30T06:27:46;25.17;;;16.20;;
13309;SDS011;6723;48.256;16.402;2022-10-30T06:30:12;33.43;;;19.87;;
13309;SDS011;6723;48.256;16.402;2022-10-30T06:32:38;32.37;;;16.73;;
13309;SDS011;6723;48.256;16.402;2022-10-30T06:35:04;29.07;;;16.73;;
13309;SDS011;6723;48.256;16.402;2022-10-30T06:37:30;25.87;;;16.33;;
13309;SDS011;6723;48.256;16.402;2022-10-30T06:39:56;23.80;;;15.47;;
13309;SDS011;6723;48.256;16.402;2022-10-30T06:42:22;40.33;;;15.00;;
13309;SDS011;6723;48.256;16.402;2022-10-30T06:44:48;22.13;;;13.90;;
13309;SDS011;6723;48.256;16.402;2022-10-30T06:47:14;25.17;;;13.97;;
13309;SDS011;6723;48.256;16.402;2022-10-30T06:49:40;21.97;;;14.30;;
13309;SDS011;6723;48.256;16.402;2022-10-30T06:52:06;23.67;;;13.97;;
13309;SDS011;6723;48.256;16.402;2022-10-30T06:54:31;23.60;;;12.80;;
13309;SDS011;6723;48.256;16.402;2022-10-30T06:56:57;18.53;;;12.97;;
13309;SDS011;6723;48.256;16.402;2022-10-30T06:59:23;17.43;;;12.13;;
13309;SDS011;6723;48.256;16.402;2022-10-30T07:01:48;19.33;;;12.17;;
13309;SDS011;6723;48.256;16.402;2022-10-30T07:04:14;20.67;;;13.17;;
13309;SDS011;6723;48.256;16.402;2022-10-30T07:06:40;17.67;;;12.00;;
13309;SDS011;6723;48.256;16.402;2022-10-30T07:09:06;22.30;;;12.40;;
13309;SDS011;6723;48.256;16.402;2022-10-30T07:11:32;21.73;;;12.47;;
13309;SDS011;6723;48.256;16.402;2022-10-30T07:13:58;25.70;;;12.77;;
13309;SDS011;6723;48.256;16.402;2022-10-30T07:16:23;25.97;;;12.93;;
13309;SDS011;6723;48.256;16.402;2022-10-30T07:18:50;26.03;;;12.30;;
13309;SDS011;6723;48.256;16.402;2022-10-30T07:21:16;27.13;;;13.17;;
13309;SDS011;6723;48.256;16.402;2022-10-30T07:23:42;20.33;;;12.80;;
13309;SDS011;6723;48.256;16.402;2022-10-30T07:26:08;21.03;;;13.23;;
13309;SDS011;6723;48.256;16.402;2022-10-30T07:28:33;18.87;;;12.80;;
13309;SDS011;6723;48.256;16.402;2022-10-30T07:30:59;18.73;;;12.10;;
13309;SDS011;6723;48.256;16.402;2022-10-30T07:33:25;22.53;;;14.03;;
13309;SDS011;6723;48.256;16.402;2022-10-30T07:35:51;21.77;;;15.40;;
13309;SDS011;6723;48.256;16.402;2022-10-30T07:38:17;21.80;;;14.33;;
13309;SDS011;6723;48.256;16.402;2022-10-30T07:40:43;24.83;;;14.70;;
13309;SDS011;6723;48.256;16.402;2022-10-30T07:43:08;26.33;;;15.53;;
13309;SDS011;6723;48.256;16.402;2022-10-30T07:45:37;25.83;;;15.97;;
13309;SDS011;6723;48.256;16.402;2022-10-30T07:48:04;20.47;;;13.63;;
13309;SDS011;6723;48.256;16.402;2022-10-30T07:50:30;19.77;;;12.97;;
13309;SDS011;6723;48.256;16.402;2022-10-30T07:52:57;19.33;;;13.07;;
13309;SDS011;6723;48.256;16.402;2022-10-30T07:55:22;16.30;;;12.43;;
13309;SDS011;6723;48.256;16.402;2022-10-30T07:57:48;17.67;;;12.40;;
13309;SDS011;6723;48.256;16.402;2022-10-30T08:00:14;17.33;;;11.93;;
13309;SDS011;6723;48.256;16.402;2022-10-30T08:02:41;16.67;;;12.27;;
13309;SDS011;6723;48.256;16.402;2022-10-30T08:05:07;19.17;;;12.80;;
13309;SDS011;6723;48.256;16.402;2022-10-30T08:07:34;19.13;;;12.33;;
13309;SDS011;6723;48.256;16.402;2022-10-30T08:10:02;16.23;;;12.43;;
13309;SDS011;6723;48.256;16.402;2022-10-30T08:12:30;17.07;;;12.03;;
13309;SDS011;6723;48.256;16.402;2022-10-30T08:14:57;16.57;;;12.13;;
13309;SDS011;6723;48.256;16.402;2022-10-30T08:17:23;21.77;;;13.20;;
13309;SDS011;6723;48.256;16.402;2022-10-30T08:19:49;16.10;;;11.70;;
13309;SDS011;6723;48.256;16.402;2022-10-30T08:22:15;17.90;;;13.20;;
13309;SDS011;6723;48.256;16.402;2022-10-30T08:24:40;14.20;;;11.17;;
13309;SDS011;6723;48.256;16.402;2022-10-30T08:27:06;15.90;;;11.23;;
13309;SDS011;6723;48.256;16.402;2022-10-30T08:29:33;13.57;;;10.47;;
13309;SDS011;6723;48.256;16.402;2022-10-30T08:31:59;13.70;;;10.90;;
13309;SDS011;6723;48.256;16.402;2022-10-30T08:34:25;13.40;;;10.33;;
13309;SDS011;6723;48.256;16.402;2022-10-30T08:36:52;13.83;;;9.90;;
13309;SDS011;6723;48.256;16.402;2022-10-30T08:39:18;14.30;;;10.33;;
13309;SDS011;6723;48.256;16.402;2022-10-30T08:41:44;12.40;;;9.30;;
13309;SDS011;6723;48.256;16.402;2022-10-30T08:44:11;14.43;;;10.47;;
13309;SDS011;6723;48.256;16.402;2022-10-30T08:46:37;10.90;;;9.23;;
13309;SDS011;6723;48.256;16.402;2022-10-30T08:49:03;11.73;;;9.83;;
13309;SDS011;6723;48.256;16.402;2022-10-30T08:51:33;12.23;;;9.13;;
13309;SDS011;6723;48.256;16.402;2022-10-30T08:53:59;13.57;;;9.07;;
13309;SDS011;6723;48.256;16.402;2022-10-30T08:56:25;14.43;;;10.40;;
13309;SDS011;6723;48.256;16.402;2022-10-30T08:58:52;22.93;;;16.67;;
13309;SDS011;6723;48.256;16.402;2022-10-30T09:01:18;16.83;;;12.97;;
13309;SDS011;6723;48.256;16.402;2022-10-30T09:03:46;13.67;;;10.30;;
13309;SDS011;6723;48.256;16.402;2022-10-30T09:06:12;12.73;;;9.77;;
13309;SDS011;6723;48.256;16.402;2022-10-30T09:08:38;13.77;;;10.00;;
13309;SDS011;6723;48.256;16.402;2022-10-30T09:11:04;12.37;;;10.33;;
13309;SDS011;6723;48.256;16.402;2022-10-30T09:13:30;13.90;;;10.80;;
13309;SDS011;6723;48.256;16.402;2022-10-30T09:15:59;16.07;;;11.00;;
13309;SDS011;6723;48.256;16.402;2022-10-30T09:18:26;12.70;;;10.30;;
13309;SDS011;6723;48.256;16.402;2022-10-30T09:20:53;13.17;;;10.37;;
13309;SDS011;6723;48.256;16.402;2022-10-30T09:23:18;14.40;;;10.53;;
13309;SDS011;6723;48.256;16.402;2022-10-30T09:25:44;15.07;;;11.00;;
13309;SDS011;6723;48.256;16.402;2022-10-30T09:28:10;14.57;;;11.17;;
13309;SDS011;6723;48.256;16.402;2022-10-30T09:30:36;15.60;;;10.63;;
13309;SDS011;6723;48.256;16.402;2022-10-30T09:33:01;13.23;;;10.57;;
13309;SDS011;6723;48.256;16.402;2022-10-30T09:35:28;14.60;;;11.17;;
13309;SDS011;6723;48.256;16.402;2022-10-30T09:37:54;15.37;;;10.70;;
13309;SDS011;6723;48.256;16.402;2022-10-30T09:42:57;16.67;;;12.93;;
13309;SDS011;6723;48.256;16.402;2022-10-30T09:46:03;17.10;;;12.30;;
13309;SDS011;6723;48.256;16.402;2022-10-30T09:48:37;16.67;;;12.00;;
13309;SDS011;6723;48.256;16.402;2022-10-30T09:54:20;18.50;;;12.90;;
13309;SDS011;6723;48.256;16.402;2022-10-30T09:57:09;16.43;;;13.37;;
13309;SDS011;6723;48.256;16.402;2022-10-30T10:05:28;24.60;;;16.77;;
13309;SDS011;6723;48.256;16.402;2022-10-30T10:08:04;23.80;;;17.63;;
13309;SDS011;6723;48.256;16.402;2022-10-30T10:10:38;18.67;;;13.53;;
13309;SDS011;6723;48.256;16.402;2022-10-30T10:13:20;19.73;;;15.10;;
13309;SDS011;6723;48.256;16.402;2022-10-30T10:15:53;19.30;;;15.57;;
13309;SDS011;6723;48.256;16.402;2022-10-30T10:18:29;19.20;;;13.93;;
13309;SDS011;6723;48.256;16.402;2022-10-30T10:21:26;19.40;;;13.83;;
13309;SDS011;6723;48.256;16.402;2022-10-30T10:23:57;17.73;;;13.83;;
13309;SDS011;6723;48.256;16.402;2022-10-30T10:26:30;16.33;;;13.43;;
13309;SDS011;6723;48.256;16.402;2022-10-30T10:32:26;19.20;;;13.87;;
13309;SDS011;6723;48.256;16.402;2022-10-30T10:38:12;21.90;;;15.17;;
13309;SDS011;6723;48.256;16.402;2022-10-30T10:43:37;20.57;;;15.00;;
13309;SDS011;6723;48.256;16.402;2022-10-30T10:54:56;19.67;;;14.30;;
13309;SDS011;6723;48.256;16.402;2022-10-30T10:57:31;18.70;;;13.80;;
13309;SDS011;6723;48.256;16.402;2022-10-30T11:00:01;17.67;;;13.43;;
13309;SDS011;6723;48.256;16.402;2022-10-30T11:05:12;17.53;;;13.80;;
13309;SDS011;6723;48.256;16.402;2022-10-30T11:07:56;16.83;;;12.33;;
13309;SDS011;6723;48.256;16.402;2022-10-30T11:10:26;15.40;;;11.83;;
13309;SDS011;6723;48.256;16.402;2022-10-30T11:12:51;13.97;;;11.80;;
13309;SDS011;6723;48.256;16.402;2022-10-30T11:16:03;14.87;;;12.30;;
13309;SDS011;6723;48.256;16.402;2022-10-30T11:18:21;15.60;;;11.83;;
13309;SDS011;6723;48.256;16.402;2022-10-30T11:25:57;18.40;;;14.27;;
13309;SDS011;6723;48.256;16.402;2022-10-30T11:29:11;19.13;;;14.30;;
13309;SDS011;6723;48.256;16.402;2022-10-30T11:31:57;19.90;;;15.07;;
13309;SDS011;6723;48.256;16.402;2022-10-30T11:34:31;19.37;;;15.43;;
13309;SDS011;6723;48.256;16.402;2022-10-30T11:37:03;19.63;;;15.20;;
13309;SDS011;6723;48.256;16.402;2022-10-30T11:39:30;20.87;;;15.90;;
13309;SDS011;6723;48.256;16.402;2022-10-30T11:44:49;19.90;;;16.43;;
13309;SDS011;6723;48.256;16.402;2022-10-30T11:47:16;21.27;;;17.27;;
13309;SDS011;6723;48.256;16.402;2022-10-30T11:49:48;21.97;;;16.93;;
13309;SDS011;6723;48.256;16.402;2022-10-30T11:52:19;23.30;;;17.10;;
13309;SDS011;6723;48.256;16.402;2022-10-30T11:54:48;24.13;;;17.70;;
13309;SDS011;6723;48.256;16.402;2022-10-30T11:57:23;23.17;;;17.70;;
13309;SDS011;6723;48.256;16.402;2022-10-30T11:59:53;21.30;;;17.60;;
13309;SDS011;6723;48.256;16.402;2022-10-30T12:02:27;20.60;;;16.63;;
13309;SDS011;6723;48.256;16.402;2022-10-30T12:04:55;19.40;;;14.47;;
13309;SDS011;6723;48.256;16.402;2022-10-30T12:07:30;14.50;;;12.93;;
13309;SDS011;6723;48.256;16.402;2022-10-30T12:09:57;16.33;;;13.60;;
13309;SDS011;6723;48.256;16.402;2022-10-30T12:12:35;18.90;;;13.57;;
13309;SDS011;6723;48.256;16.402;2022-10-30T12:17:36;20.80;;;16.77;;
13309;SDS011;6723;48.256;16.402;2022-10-30T12:20:04;25.10;;;19.47;;
13309;SDS011;6723;48.256;16.402;2022-10-30T12:22:31;25.90;;;21.03;;
13309;SDS011;6723;48.256;16.402;2022-10-30T12:25:00;34.90;;;26.03;;
13309;SDS011;6723;48.256;16.402;2022-10-30T12:27:28;35.93;;;25.97;;
13309;SDS011;6723;48.256;16.402;2022-10-30T12:30:00;37.30;;;27.43;;
13309;SDS011;6723;48.256;16.402;2022-10-30T12:38:08;48.93;;;32.13;;
13309;SDS011;6723;48.256;16.402;2022-10-30T12:41:01;52.23;;;34.43;;
13309;SDS011;6723;48.256;16.402;2022-10-30T12:43:48;54.63;;;36.90;;
13309;SDS011;6723;48.256;16.402;2022-10-30T12:49:10;55.43;;;36.83;;
13309;SDS011;6723;48.256;16.402;2022-10-30T12:51:48;57.03;;;38.50;;
13309;SDS011;6723;48.256;16.402;2022-10-30T12:54:32;56.47;;;36.93;;
13309;SDS011;6723;48.256;16.402;2022-10-30T12:57:23;57.00;;;37.70;;
13309;SDS011;6723;48.256;16.402;2022-10-30T13:05:15;60.27;;;38.67;;
13309;SDS011;6723;48.256;16.402;2022-10-30T13:07:54;61.67;;;39.10;;
13309;SDS011;6723;48.256;16.402;2022-10-30T13:10:38;62.30;;;39.27;;
13309;SDS011;6723;48.256;16.402;2022-10-30T13:16:29;66.07;;;42.30;;
13309;SDS011;6723;48.256;16.402;2022-10-30T13:18:59;68.23;;;42.63;;
13309;SDS011;6723;48.256;16.402;2022-10-30T13:21:43;70.70;;;43.33;;
13309;SDS011;6723;48.256;16.402;2022-10-30T13:27:01;63.67;;;40.13;;
13309;SDS011;6723;48.256;16.402;2022-10-30T13:29:39;61.40;;;38.67;;
13309;SDS011;6723;48.256;16.402;2022-10-30T13:41:22;60.03;;;37.83;;
13309;SDS011;6723;48.256;16.402;2022-10-30T13:46:51;63.87;;;39.37;;
13309;SDS011;6723;48.256;16.402;2022-10-30T13:52:14;59.80;;;38.30;;
13309;SDS011;6723;48.256;16.402;2022-10-30T14:00:13;59.60;;;38.60;;
13309;SDS011;6723;48.256;16.402;2022-10-30T14:03:04;61.97;;;38.20;;
13309;SDS011;6723;48.256;16.402;2022-10-30T14:10:53;66.00;;;39.77;;
13309;SDS011;6723;48.256;16.402;2022-10-30T14:13:25;68.27;;;39.63;;
13309;SDS011;6723;48.256;16.402;2022-10-30T14:15:55;61.80;;;39.00;;
13309;SDS011;6723;48.256;16.402;2022-10-30T14:20:52;60.60;;;38.90;;
13309;SDS011;6723;48.256;16.402;2022-10-30T14:23:43;59.27;;;38.33;;
13309;SDS011;6723;48.256;16.402;2022-10-30T14:28:35;63.27;;;39.50;;
13309;SDS011;6723;48.256;16.402;2022-10-30T14:31:12;58.53;;;38.80;;
13309;SDS011;6723;48.256;16.402;2022-10-30T14:33:44;58.03;;;37.27;;
13309;SDS011;6723;48.256;16.402;2022-10-30T14:36:16;61.17;;;38.50;;
13309;SDS011;6723;48.256;16.402;2022-10-30T14:44:49;62.53;;;40.50;;
13309;SDS011;6723;48.256;16.402;2022-10-30T14:55:39;56.10;;;37.13;;
13309;SDS011;6723;48.256;16.402;2022-10-30T15:00:52;61.07;;;38.57;;
13309;SDS011;6723;48.256;16.402;2022-10-30T15:09:12;66.17;;;41.37;;
13309;SDS011;6723;48.256;16.402;2022-10-30T15:14:44;74.00;;;45.00;;
13309;SDS011;6723;48.256;16.402;2022-10-30T15:17:59;65.20;;;41.03;;
13309;SDS011;6723;48.256;16.402;2022-10-30T15:19:59;69.87;;;42.37;;
13309;SDS011;6723;48.256;16.402;2022-10-30T15:22:29;65.50;;;43.13;;
13309;SDS011;6723;48.256;16.402;2022-10-30T15:24:56;64.80;;;39.53;;
13309;SDS011;6723;48.256;16.402;2022-10-30T15:27:22;62.03;;;40.50;;
13309;SDS011;6723;48.256;16.402;2022-10-30T15:29:53;63.67;;;39.00;;
13309;SDS011;6723;48.256;16.402;2022-10-30T15:32:21;61.17;;;39.13;;
13309;SDS011;6723;48.256;16.402;2022-10-30T15:34:52;64.17;;;39.43;;
13309;SDS011;6723;48.256;16.402;2022-10-30T15:37:19;62.17;;;40.87;;
13309;SDS011;6723;48.256;16.402;2022-10-30T15:39:45;64.43;;;40.67;;
13309;SDS011;6723;48.256;16.402;2022-10-30T15:42:11;59.13;;;38.70;;
13309;SDS011;6723;48.256;16.402;2022-10-30T15:44:39;59.57;;;37.23;;
13309;SDS011;6723;48.256;16.402;2022-10-30T15:47:12;59.03;;;37.20;;
13309;SDS011;6723;48.256;16.402;2022-10-30T15:49:41;59.20;;;36.37;;
13309;SDS011;6723;48.256;16.402;2022-10-30T15:52:24;60.27;;;37.63;;
13309;SDS011;6723;48.256;16.402;2022-10-30T15:57:28;60.70;;;36.43;;
13309;SDS011;6723;48.256;16.402;2022-10-30T16:00:00;61.30;;;36.77;;
13309;SDS011;6723;48.256;16.402;2022-10-30T16:02:32;63.40;;;37.43;;
13309;SDS011;6723;48.256;16.402;2022-10-30T16:05:00;66.33;;;39.03;;
13309;SDS011;6723;48.256;16.402;2022-10-30T16:07:27;66.93;;;38.43;;
13309;SDS011;6723;48.256;16.402;2022-10-30T16:09:56;66.33;;;38.37;;
13309;SDS011;6723;48.256;16.402;2022-10-30T16:12:32;70.50;;;39.80;;
13309;SDS011;6723;48.256;16.402;2022-10-30T16:15:01;63.90;;;39.07;;
13309;SDS011;6723;48.256;16.402;2022-10-30T16:17:31;70.93;;;39.67;;
13309;SDS011;6723;48.256;16.402;2022-10-30T16:19:58;71.60;;;40.33;;
13309;SDS011;6723;48.256;16.402;2022-10-30T16:22:27;69.70;;;40.57;;
13309;SDS011;6723;48.256;16.402;2022-10-30T16:24:57;80.67;;;42.00;;
13309;SDS011;6723;48.256;16.402;2022-10-30T16:27:24;81.77;;;43.97;;
13309;SDS011;6723;48.256;16.402;2022-10-30T16:29:55;75.47;;;42.40;;
13309;SDS011;6723;48.256;16.402;2022-10-30T16:32:26;76.50;;;40.70;;
13309;SDS011;6723;48.256;16.402;2022-10-30T16:37:35;85.47;;;48.03;;
13309;SDS011;6723;48.256;16.402;2022-10-30T16:40:06;81.27;;;42.63;;
13309;SDS011;6723;48.256;16.402;2022-10-30T16:42:39;78.73;;;43.17;;
13309;SDS011;6723;48.256;16.402;2022-10-30T16:47:37;75.03;;;40.77;;
13309;SDS011;6723;48.256;16.402;2022-10-30T16:50:12;73.80;;;41.40;;
13309;SDS011;6723;48.256;16.402;2022-10-30T16:52:40;74.63;;;39.03;;
13309;SDS011;6723;48.256;16.402;2022-10-30T16:55:11;70.47;;;39.33;;
13309;SDS011;6723;48.256;16.402;2022-10-30T16:57:42;70.30;;;37.33;;
13309;SDS011;6723;48.256;16.402;2022-10-30T17:00:20;73.63;;;38.20;;
13309;SDS011;6723;48.256;16.402;2022-10-30T17:02:49;67.20;;;37.50;;
13309;SDS011;6723;48.256;16.402;2022-10-30T17:05:26;64.90;;;38.00;;
13309;SDS011;6723;48.256;16.402;2022-10-30T17:10:41;69.90;;;40.00;;